sensor_id;sensor_type;location;lat;lon;timestamp;temperature;humidity
3275;DHT22;1649;53.672;10.064;2022-07-17T00:01:52;12.80;99.90
3275;DHT22;1649;53.672;10.064;2022-07-17T00:04:17;12.70;99.90
3275;DHT22;1649;53.672;10.064;2022-07-17T00:06:43;12.80;99.90
3275;DHT22;1649;53.672;10.064;2022-07-17T00:09:09;12.70;99.90
3275;DHT22;1649;53.672;10.064;2022-07-17T00:11:34;12.80;99.90
3275;DHT22;1649;53.672;10.064;2022-07-17T00:14:00;12.80;99.90
3275;DHT22;1649;53.672;10.064;2022-07-17T00:16:25;12.70;99.90
3275;DHT22;1649;53.672;10.064;2022-07-17T00:18:51;12.70;99.90
3275;DHT22;1649;53.672;10.064;2022-07-17T00:21:16;12.70;99.90
3275;DHT22;1649;53.672;10.064;2022-07-17T00:23:42;12.70;99.90
3275;DHT22;1649;53.672;10.064;2022-07-17T00:26:08;12.50;99.90
3275;DHT22;1649;53.672;10.064;2022-07-17T00:28:34;12.50;99.90
3275;DHT22;1649;53.672;10.064;2022-07-17T00:30:59;12.40;99.90
3275;DHT22;1649;53.672;10.064;2022-07-17T00:33:25;12.50;99.90
3275;DHT22;1649;53.672;10.064;2022-07-17T00:35:50;12.50;99.90
3275;DHT22;1649;53.672;10.064;2022-07-17T00:38:16;12.50;99.90
3275;DHT22;1649;53.672;10.064;2022-07-17T00:40:41;12.50;99.90
3275;DHT22;1649;53.672;10.064;2022-07-17T00:43:07;12.50;99.90
3275;DHT22;1649;53.672;10.064;2022-07-17T00:45:32;12.50;99.90
3275;DHT22;1649;53.672;10.064;2022-07-17T00:48:00;12.40;99.90
3275;DHT22;1649;53.672;10.064;2022-07-17T00:50:30;12.50;99.90
3275;DHT22;1649;53.672;10.064;2022-07-17T00:52:56;12.50;99.90
3275;DHT22;1649;53.672;10.064;2022-07-17T00:55:23;12.50;99.90
3275;DHT22;1649;53.672;10.064;2022-07-17T00:57:49;12.40;99.90
3275;DHT22;1649;53.672;10.064;2022-07-17T01:00:16;12.40;99.90
3275;DHT22;1649;53.672;10.064;2022-07-17T01:02:49;12.20;99.90
3275;DHT22;1649;53.672;10.064;2022-07-17T01:05:17;12.20;99.90
3275;DHT22;1649;53.672;10.064;2022-07-17T01:07:43;12.20;99.90
3275;DHT22;1649;53.672;10.064;2022-07-17T01:10:09;12.30;99.90
3275;DHT22;1649;53.672;10.064;2022-07-17T01:12:35;12.20;99.90
3275;DHT22;1649;53.672;10.064;2022-07-17T01:15:01;12.10;99.90
3275;DHT22;1649;53.672;10.064;2022-07-17T01:17:27;12.10;99.90
3275;DHT22;1649;53.672;10.064;2022-07-17T01:19:53;12.10;99.90
3275;DHT22;1649;53.672;10.064;2022-07-17T01:22:19;12.10;99.90
3275;DHT22;1649;53.672;10.064;2022-07-17T01:24:45;12.10;99.90
3275;DHT22;1649;53.672;10.064;2022-07-17T01:27:10;12.10;99.90
3275;DHT22;1649;53.672;10.064;2022-07-17T01:29:37;12.10;99.90
3275;DHT22;1649;53.672;10.064;2022-07-17T01:32:03;12.20;99.90
3275;DHT22;1649;53.672;10.064;2022-07-17T01:34:28;12.20;99.90
3275;DHT22;1649;53.672;10.064;2022-07-17T01:36:54;12.20;99.90
3275;DHT22;1649;53.672;10.064;2022-07-17T01:39:19;12.30;99.90
3275;DHT22;1649;53.672;10.064;2022-07-17T01:42:05;12.30;99.90
3275;DHT22;1649;53.672;10.064;2022-07-17T01:44:30;12.30;99.90
3275;DHT22;1649;53.672;10.064;2022-07-17T01:46:56;12.30;99.90
3275;DHT22;1649;53.672;10.064;2022-07-17T01:49:21;12.40;99.90
3275;DHT22;1649;53.672;10.064;2022-07-17T01:51:47;12.30;99.90
3275;DHT22;1649;53.672;10.064;2022-07-17T01:54:13;12.20;99.90
3275;DHT22;1649;53.672;10.064;2022-07-17T01:56:39;12.30;99.90
3275;DHT22;1649;53.672;10.064;2022-07-17T01:59:04;12.30;99.90
3275;DHT22;1649;53.672;10.064;2022-07-17T02:01:30;12.40;99.90
3275;DHT22;1649;53.672;10.064;2022-07-17T02:03:55;12.40;99.90
3275;DHT22;1649;53.672;10.064;2022-07-17T02:06:21;12.40;99.90
3275;DHT22;1649;53.672;10.064;2022-07-17T02:08:46;12.50;99.90
3275;DHT22;1649;53.672;10.064;2022-07-17T02:11:15;12.40;99.90
3275;DHT22;1649;53.672;10.064;2022-07-17T02:13:40;12.40;99.90
3275;DHT22;1649;53.672;10.064;2022-07-17T02:16:06;12.50;99.90
3275;DHT22;1649;53.672;10.064;2022-07-17T02:18:32;12.60;99.90
3275;DHT22;1649;53.672;10.064;2022-07-17T02:20:57;12.60;99.90
3275;DHT22;1649;53.672;10.064;2022-07-17T02:23:23;12.70;99.90
3275;DHT22;1649;53.672;10.064;2022-07-17T02:25:48;12.70;99.90
3275;DHT22;1649;53.672;10.064;2022-07-17T02:28:14;12.60;99.90
3275;DHT22;1649;53.672;10.064;2022-07-17T02:30:39;12.60;99.90
3275;DHT22;1649;53.672;10.064;2022-07-17T02:33:05;12.60;99.90
3275;DHT22;1649;53.672;10.064;2022-07-17T02:35:32;12.60;99.90
3275;DHT22;1649;53.672;10.064;2022-07-17T02:37:58;12.60;99.90
3275;DHT22;1649;53.672;10.064;2022-07-17T02:40:23;12.70;99.90
3275;DHT22;1649;53.672;10.064;2022-07-17T02:42:49;12.70;99.90
3275;DHT22;1649;53.672;10.064;2022-07-17T02:45:14;12.80;99.90
3275;DHT22;1649;53.672;10.064;2022-07-17T02:47:41;12.70;99.90
3275;DHT22;1649;53.672;10.064;2022-07-17T02:50:08;12.70;99.90
3275;DHT22;1649;53.672;10.064;2022-07-17T02:52:34;12.70;99.90
3275;DHT22;1649;53.672;10.064;2022-07-17T02:54:59;12.70;99.90
3275;DHT22;1649;53.672;10.064;2022-07-17T02:57:25;12.70;99.90
3275;DHT22;1649;53.672;10.064;2022-07-17T02:59:50;12.80;99.90
3275;DHT22;1649;53.672;10.064;2022-07-17T03:02:16;12.70;99.90
3275;DHT22;1649;53.672;10.064;2022-07-17T03:04:41;12.80;99.90
3275;DHT22;1649;53.672;10.064;2022-07-17T03:07:07;12.80;99.90
3275;DHT22;1649;53.672;10.064;2022-07-17T03:09:32;12.80;99.90
3275;DHT22;1649;53.672;10.064;2022-07-17T03:11:58;12.90;99.90
3275;DHT22;1649;53.672;10.064;2022-07-17T03:14:24;12.90;99.90
3275;DHT22;1649;53.672;10.064;2022-07-17T03:16:49;12.90;99.90
3275;DHT22;1649;53.672;10.064;2022-07-17T03:19:15;12.90;99.90
3275;DHT22;1649;53.672;10.064;2022-07-17T03:21:40;13.00;99.90
3275;DHT22;1649;53.672;10.064;2022-07-17T03:24:06;13.00;99.90
3275;DHT22;1649;53.672;10.064;2022-07-17T03:26:32;13.00;99.90
3275;DHT22;1649;53.672;10.064;2022-07-17T03:28:58;13.00;99.90
3275;DHT22;1649;53.672;10.064;2022-07-17T03:31:23;13.00;99.90
3275;DHT22;1649;53.672;10.064;2022-07-17T03:33:49;13.00;99.90
3275;DHT22;1649;53.672;10.064;2022-07-17T03:36:14;13.00;99.90
3275;DHT22;1649;53.672;10.064;2022-07-17T03:38:40;13.10;99.90
3275;DHT22;1649;53.672;10.064;2022-07-17T03:41:05;13.10;99.90
3275;DHT22;1649;53.672;10.064;2022-07-17T03:43:31;13.10;99.90
3275;DHT22;1649;53.672;10.064;2022-07-17T03:45:56;13.10;99.90
3275;DHT22;1649;53.672;10.064;2022-07-17T03:48:22;13.10;99.90
3275;DHT22;1649;53.672;10.064;2022-07-17T03:50:47;13.20;99.90
3275;DHT22;1649;53.672;10.064;2022-07-17T03:53:13;13.10;99.90
3275;DHT22;1649;53.672;10.064;2022-07-17T03:55:38;13.20;99.90
3275;DHT22;1649;53.672;10.064;2022-07-17T03:58:04;13.20;99.90
3275;DHT22;1649;53.672;10.064;2022-07-17T04:00:30;13.20;99.90
3275;DHT22;1649;53.672;10.064;2022-07-17T04:02:55;13.20;99.90
3275;DHT22;1649;53.672;10.064;2022-07-17T04:05:21;13.30;99.90
3275;DHT22;1649;53.672;10.064;2022-07-17T04:07:46;13.40;99.90
3275;DHT22;1649;53.672;10.064;2022-07-17T04:10:13;13.50;99.90
3275;DHT22;1649;53.672;10.064;2022-07-17T04:12:40;13.50;99.90
3275;DHT22;1649;53.672;10.064;2022-07-17T04:15:07;13.50;99.90
3275;DHT22;1649;53.672;10.064;2022-07-17T04:17:33;13.40;99.90
3275;DHT22;1649;53.672;10.064;2022-07-17T04:19:58;13.50;99.90
3275;DHT22;1649;53.672;10.064;2022-07-17T04:22:24;13.50;99.90
3275;DHT22;1649;53.672;10.064;2022-07-17T04:24:50;13.60;99.90
3275;DHT22;1649;53.672;10.064;2022-07-17T04:27:16;13.70;99.90
3275;DHT22;1649;53.672;10.064;2022-07-17T04:29:43;13.70;99.90
3275;DHT22;1649;53.672;10.064;2022-07-17T04:32:09;13.80;99.90
3275;DHT22;1649;53.672;10.064;2022-07-17T04:34:34;13.80;99.90
3275;DHT22;1649;53.672;10.064;2022-07-17T04:37:01;13.80;99.90
3275;DHT22;1649;53.672;10.064;2022-07-17T04:39:27;13.80;99.90
3275;DHT22;1649;53.672;10.064;2022-07-17T04:41:53;13.80;99.90
3275;DHT22;1649;53.672;10.064;2022-07-17T04:44:19;13.80;99.90
3275;DHT22;1649;53.672;10.064;2022-07-17T04:46:45;13.80;99.90
3275;DHT22;1649;53.672;10.064;2022-07-17T04:49:10;13.90;99.90
3275;DHT22;1649;53.672;10.064;2022-07-17T04:51:36;14.00;99.90
3275;DHT22;1649;53.672;10.064;2022-07-17T04:54:02;13.90;99.90
3275;DHT22;1649;53.672;10.064;2022-07-17T04:56:27;14.00;99.90
3275;DHT22;1649;53.672;10.064;2022-07-17T04:58:53;14.00;99.90
3275;DHT22;1649;53.672;10.064;2022-07-17T05:01:18;14.10;99.90
3275;DHT22;1649;53.672;10.064;2022-07-17T05:03:44;14.20;99.90
3275;DHT22;1649;53.672;10.064;2022-07-17T05:06:09;14.40;99.90
3275;DHT22;1649;53.672;10.064;2022-07-17T05:08:35;14.50;99.90
3275;DHT22;1649;53.672;10.064;2022-07-17T05:11:00;14.50;99.90
3275;DHT22;1649;53.672;10.064;2022-07-17T05:13:26;14.70;99.90
3275;DHT22;1649;53.672;10.064;2022-07-17T05:15:51;14.70;99.90
3275;DHT22;1649;53.672;10.064;2022-07-17T05:18:17;14.70;99.90
3275;DHT22;1649;53.672;10.064;2022-07-17T05:20:43;14.80;99.90
3275;DHT22;1649;53.672;10.064;2022-07-17T05:23:08;14.80;99.90
3275;DHT22;1649;53.672;10.064;2022-07-17T05:25:34;14.90;99.90
3275;DHT22;1649;53.672;10.064;2022-07-17T05:27:59;15.00;99.90
3275;DHT22;1649;53.672;10.064;2022-07-17T05:30:25;14.90;99.90
3275;DHT22;1649;53.672;10.064;2022-07-17T05:32:51;15.00;99.90
3275;DHT22;1649;53.672;10.064;2022-07-17T05:35:16;15.00;99.90
3275;DHT22;1649;53.672;10.064;2022-07-17T05:37:42;15.00;99.90
3275;DHT22;1649;53.672;10.064;2022-07-17T05:40:08;15.10;99.90
3275;DHT22;1649;53.672;10.064;2022-07-17T05:42:33;15.10;99.90
3275;DHT22;1649;53.672;10.064;2022-07-17T05:44:59;15.20;99.90
3275;DHT22;1649;53.672;10.064;2022-07-17T05:47:25;15.30;99.90
3275;DHT22;1649;53.672;10.064;2022-07-17T05:49:50;15.40;99.90
3275;DHT22;1649;53.672;10.064;2022-07-17T05:52:16;15.50;99.90
3275;DHT22;1649;53.672;10.064;2022-07-17T05:54:42;15.50;99.90
3275;DHT22;1649;53.672;10.064;2022-07-17T05:57:07;15.60;99.90
3275;DHT22;1649;53.672;10.064;2022-07-17T05:59:33;15.60;99.90
3275;DHT22;1649;53.672;10.064;2022-07-17T06:01:59;15.60;99.90
3275;DHT22;1649;53.672;10.064;2022-07-17T06:04:25;15.60;99.90
3275;DHT22;1649;53.672;10.064;2022-07-17T06:06:50;15.60;99.90
3275;DHT22;1649;53.672;10.064;2022-07-17T06:09:16;15.50;99.90
3275;DHT22;1649;53.672;10.064;2022-07-17T06:11:41;15.50;99.90
3275;DHT22;1649;53.672;10.064;2022-07-17T06:14:07;15.60;99.90
3275;DHT22;1649;53.672;10.064;2022-07-17T06:16:32;15.80;99.90
3275;DHT22;1649;53.672;10.064;2022-07-17T06:18:58;15.90;99.90
3275;DHT22;1649;53.672;10.064;2022-07-17T06:21:23;16.20;99.90
3275;DHT22;1649;53.672;10.064;2022-07-17T06:23:49;16.60;99.90
3275;DHT22;1649;53.672;10.064;2022-07-17T06:26:14;16.70;99.90
3275;DHT22;1649;53.672;10.064;2022-07-17T06:28:40;16.80;99.90
3275;DHT22;1649;53.672;10.064;2022-07-17T06:31:06;16.90;99.90
3275;DHT22;1649;53.672;10.064;2022-07-17T06:33:31;17.00;99.90
3275;DHT22;1649;53.672;10.064;2022-07-17T06:35:57;17.10;99.90
3275;DHT22;1649;53.672;10.064;2022-07-17T06:38:23;17.30;99.90
3275;DHT22;1649;53.672;10.064;2022-07-17T06:40:49;17.40;99.90
3275;DHT22;1649;53.672;10.064;2022-07-17T06:43:15;17.50;99.90
3275;DHT22;1649;53.672;10.064;2022-07-17T06:45:40;17.70;99.90
3275;DHT22;1649;53.672;10.064;2022-07-17T06:48:06;17.80;99.90
3275;DHT22;1649;53.672;10.064;2022-07-17T06:50:31;17.90;99.90
3275;DHT22;1649;53.672;10.064;2022-07-17T06:52:57;17.90;99.90
3275;DHT22;1649;53.672;10.064;2022-07-17T06:55:23;17.80;99.90
3275;DHT22;1649;53.672;10.064;2022-07-17T06:57:49;17.70;99.90
3275;DHT22;1649;53.672;10.064;2022-07-17T07:00:14;17.70;99.90
3275;DHT22;1649;53.672;10.064;2022-07-17T07:02:40;17.50;99.90
3275;DHT22;1649;53.672;10.064;2022-07-17T07:05:06;17.40;99.90
3275;DHT22;1649;53.672;10.064;2022-07-17T07:07:31;17.50;99.90
3275;DHT22;1649;53.672;10.064;2022-07-17T07:09:57;17.60;99.90
3275;DHT22;1649;53.672;10.064;2022-07-17T07:12:22;17.70;99.90
3275;DHT22;1649;53.672;10.064;2022-07-17T07:14:48;17.80;99.90
3275;DHT22;1649;53.672;10.064;2022-07-17T07:17:13;18.10;99.90
3275;DHT22;1649;53.672;10.064;2022-07-17T07:19:39;18.20;99.90
3275;DHT22;1649;53.672;10.064;2022-07-17T07:22:05;18.70;99.90
3275;DHT22;1649;53.672;10.064;2022-07-17T07:24:30;19.60;99.90
3275;DHT22;1649;53.672;10.064;2022-07-17T07:26:56;20.70;99.90
3275;DHT22;1649;53.672;10.064;2022-07-17T07:29:21;22.10;99.90
3275;DHT22;1649;53.672;10.064;2022-07-17T07:31:47;22.60;97.90
3275;DHT22;1649;53.672;10.064;2022-07-17T07:34:13;22.50;97.70
3275;DHT22;1649;53.672;10.064;2022-07-17T07:36:39;22.70;98.30
3275;DHT22;1649;53.672;10.064;2022-07-17T07:39:04;23.40;97.00
3275;DHT22;1649;53.672;10.064;2022-07-17T07:41:30;23.40;94.70
3275;DHT22;1649;53.672;10.064;2022-07-17T07:43:55;23.90;95.30
3275;DHT22;1649;53.672;10.064;2022-07-17T07:46:21;23.90;93.90
3275;DHT22;1649;53.672;10.064;2022-07-17T07:48:46;22.90;94.50
3275;DHT22;1649;53.672;10.064;2022-07-17T07:51:12;22.30;96.40
3275;DHT22;1649;53.672;10.064;2022-07-17T07:53:38;22.50;96.40
3275;DHT22;1649;53.672;10.064;2022-07-17T07:56:03;22.50;97.40
3275;DHT22;1649;53.672;10.064;2022-07-17T07:58:29;22.20;96.40
3275;DHT22;1649;53.672;10.064;2022-07-17T08:00:55;21.70;96.60
3275;DHT22;1649;53.672;10.064;2022-07-17T08:03:20;21.40;97.20
3275;DHT22;1649;53.672;10.064;2022-07-17T08:05:46;21.20;97.10
3275;DHT22;1649;53.672;10.064;2022-07-17T08:08:11;21.30;98.30
3275;DHT22;1649;53.672;10.064;2022-07-17T08:10:37;22.20;99.50
3275;DHT22;1649;53.672;10.064;2022-07-17T08:13:02;23.50;98.20
3275;DHT22;1649;53.672;10.064;2022-07-17T08:15:28;24.10;94.00
3275;DHT22;1649;53.672;10.064;2022-07-17T08:17:54;23.70;93.50
3275;DHT22;1649;53.672;10.064;2022-07-17T08:20:20;23.10;92.70
3275;DHT22;1649;53.672;10.064;2022-07-17T08:25:14;21.60;95.40
3275;DHT22;1649;53.672;10.064;2022-07-17T08:27:42;21.30;97.10
3275;DHT22;1649;53.672;10.064;2022-07-17T08:30:10;22.10;98.70
3275;DHT22;1649;53.672;10.064;2022-07-17T08:32:36;23.40;97.50
3275;DHT22;1649;53.672;10.064;2022-07-17T08:35:03;24.30;93.80
3275;DHT22;1649;53.672;10.064;2022-07-17T08:37:28;23.80;93.10
3275;DHT22;1649;53.672;10.064;2022-07-17T08:39:55;23.20;93.00
3275;DHT22;1649;53.672;10.064;2022-07-17T08:42:21;23.10;95.30
3275;DHT22;1649;53.672;10.064;2022-07-17T08:44:47;23.80;94.90
3275;DHT22;1649;53.672;10.064;2022-07-17T08:47:14;25.00;94.00
3275;DHT22;1649;53.672;10.064;2022-07-17T08:49:47;26.40;91.60
3275;DHT22;1649;53.672;10.064;2022-07-17T08:52:14;26.90;90.50
3275;DHT22;1649;53.672;10.064;2022-07-17T08:54:40;26.60;88.50
3275;DHT22;1649;53.672;10.064;2022-07-17T08:57:05;25.50;86.70
3275;DHT22;1649;53.672;10.064;2022-07-17T08:59:31;24.60;88.10
3275;DHT22;1649;53.672;10.064;2022-07-17T09:02:00;23.90;90.40
3275;DHT22;1649;53.672;10.064;2022-07-17T09:04:26;24.40;91.10
3275;DHT22;1649;53.672;10.064;2022-07-17T09:07:03;25.50;91.70
3275;DHT22;1649;53.672;10.064;2022-07-17T09:09:29;25.10;89.20
3275;DHT22;1649;53.672;10.064;2022-07-17T09:11:57;25.80;90.40
3275;DHT22;1649;53.672;10.064;2022-07-17T09:14:24;26.10;87.90
3275;DHT22;1649;53.672;10.064;2022-07-17T09:17:00;26.10;85.60
3275;DHT22;1649;53.672;10.064;2022-07-17T09:19:33;26.50;84.90
3275;DHT22;1649;53.672;10.064;2022-07-17T09:22:21;26.60;88.60
3275;DHT22;1649;53.672;10.064;2022-07-17T09:27:31;27.60;87.80
3275;DHT22;1649;53.672;10.064;2022-07-17T09:29:58;27.80;81.50
3275;DHT22;1649;53.672;10.064;2022-07-17T09:32:26;27.60;81.10
3275;DHT22;1649;53.672;10.064;2022-07-17T09:34:54;26.90;78.40
3275;DHT22;1649;53.672;10.064;2022-07-17T09:37:22;25.90;84.40
3275;DHT22;1649;53.672;10.064;2022-07-17T09:39:49;25.80;89.50
3275;DHT22;1649;53.672;10.064;2022-07-17T09:42:28;26.00;85.30
3275;DHT22;1649;53.672;10.064;2022-07-17T09:45:05;26.80;83.50
3275;DHT22;1649;53.672;10.064;2022-07-17T09:47:33;27.30;83.90
3275;DHT22;1649;53.672;10.064;2022-07-17T09:50:01;27.00;82.00
3275;DHT22;1649;53.672;10.064;2022-07-17T09:52:29;27.10;86.50
3275;DHT22;1649;53.672;10.064;2022-07-17T09:54:59;27.30;83.50
3275;DHT22;1649;53.672;10.064;2022-07-17T09:57:29;27.30;82.10
3275;DHT22;1649;53.672;10.064;2022-07-17T09:59:58;27.30;80.80
3275;DHT22;1649;53.672;10.064;2022-07-17T10:02:24;27.20;80.20
3275;DHT22;1649;53.672;10.064;2022-07-17T10:04:51;27.80;81.50
3275;DHT22;1649;53.672;10.064;2022-07-17T10:07:17;28.30;76.90
3275;DHT22;1649;53.672;10.064;2022-07-17T10:09:43;28.10;80.40
3275;DHT22;1649;53.672;10.064;2022-07-17T10:12:09;27.80;79.90
3275;DHT22;1649;53.672;10.064;2022-07-17T10:14:35;27.60;78.60
3275;DHT22;1649;53.672;10.064;2022-07-17T10:17:11;27.80;78.80
3275;DHT22;1649;53.672;10.064;2022-07-17T10:19:53;28.00;75.20
3275;DHT22;1649;53.672;10.064;2022-07-17T10:22:20;27.90;78.30
3275;DHT22;1649;53.672;10.064;2022-07-17T10:24:51;28.00;78.40
3275;DHT22;1649;53.672;10.064;2022-07-17T10:27:29;28.10;79.30
3275;DHT22;1649;53.672;10.064;2022-07-17T10:30:09;27.30;75.50
3275;DHT22;1649;53.672;10.064;2022-07-17T10:32:35;27.00;78.60
3275;DHT22;1649;53.672;10.064;2022-07-17T10:35:07;27.20;79.10
3275;DHT22;1649;53.672;10.064;2022-07-17T10:37:39;27.20;79.40
3275;DHT22;1649;53.672;10.064;2022-07-17T10:40:06;27.30;78.20
3275;DHT22;1649;53.672;10.064;2022-07-17T10:45:41;28.10;76.00
3275;DHT22;1649;53.672;10.064;2022-07-17T10:48:12;28.50;77.80
3275;DHT22;1649;53.672;10.064;2022-07-17T10:50:43;28.70;78.30
3275;DHT22;1649;53.672;10.064;2022-07-17T10:55:40;28.20;74.00
3275;DHT22;1649;53.672;10.064;2022-07-17T10:58:19;28.70;72.80
3275;DHT22;1649;53.672;10.064;2022-07-17T11:01:12;28.30;75.30
3275;DHT22;1649;53.672;10.064;2022-07-17T11:03:44;28.70;71.00
3275;DHT22;1649;53.672;10.064;2022-07-17T11:06:15;28.80;75.50
3275;DHT22;1649;53.672;10.064;2022-07-17T11:08:43;28.50;72.40
3275;DHT22;1649;53.672;10.064;2022-07-17T11:11:09;27.80;76.80
3275;DHT22;1649;53.672;10.064;2022-07-17T11:13:35;27.90;80.00
3275;DHT22;1649;53.672;10.064;2022-07-17T11:16:00;28.10;78.10
3275;DHT22;1649;53.672;10.064;2022-07-17T11:18:26;28.40;73.60
3275;DHT22;1649;53.672;10.064;2022-07-17T11:21:00;28.50;71.80
3275;DHT22;1649;53.672;10.064;2022-07-17T11:23:29;28.50;75.40
3275;DHT22;1649;53.672;10.064;2022-07-17T11:25:59;28.80;76.20
3275;DHT22;1649;53.672;10.064;2022-07-17T11:28:33;28.50;76.10
3275;DHT22;1649;53.672;10.064;2022-07-17T11:30:59;28.70;75.00
3275;DHT22;1649;53.672;10.064;2022-07-17T11:33:26;28.40;74.20
3275;DHT22;1649;53.672;10.064;2022-07-17T11:35:51;28.40;74.60
3275;DHT22;1649;53.672;10.064;2022-07-17T11:38:24;28.10;72.70
3275;DHT22;1649;53.672;10.064;2022-07-17T11:40:50;27.90;75.40
3275;DHT22;1649;53.672;10.064;2022-07-17T11:43:15;27.90;76.10
3275;DHT22;1649;53.672;10.064;2022-07-17T11:45:42;28.00;73.00
3275;DHT22;1649;53.672;10.064;2022-07-17T11:48:08;28.20;75.40
3275;DHT22;1649;53.672;10.064;2022-07-17T11:50:34;27.90;77.70
3275;DHT22;1649;53.672;10.064;2022-07-17T11:53:04;27.50;75.60
3275;DHT22;1649;53.672;10.064;2022-07-17T11:55:37;27.80;74.60
3275;DHT22;1649;53.672;10.064;2022-07-17T11:58:03;27.60;77.30
3275;DHT22;1649;53.672;10.064;2022-07-17T12:00:29;27.70;77.00
3275;DHT22;1649;53.672;10.064;2022-07-17T12:03:02;27.60;73.40
3275;DHT22;1649;53.672;10.064;2022-07-17T12:05:30;27.40;74.70
3275;DHT22;1649;53.672;10.064;2022-07-17T12:07:56;27.10;76.80
3275;DHT22;1649;53.672;10.064;2022-07-17T12:10:23;27.30;74.40
3275;DHT22;1649;53.672;10.064;2022-07-17T12:13:03;27.30;72.80
3275;DHT22;1649;53.672;10.064;2022-07-17T12:15:41;27.10;74.20
3275;DHT22;1649;53.672;10.064;2022-07-17T12:18:19;27.20;74.70
3275;DHT22;1649;53.672;10.064;2022-07-17T12:20:48;27.20;71.70
3275;DHT22;1649;53.672;10.064;2022-07-17T12:23:36;27.30;75.60
3275;DHT22;1649;53.672;10.064;2022-07-17T12:28:29;27.20;76.80
3275;DHT22;1649;53.672;10.064;2022-07-17T12:30:55;27.00;75.50
3275;DHT22;1649;53.672;10.064;2022-07-17T12:33:21;26.80;74.70
3275;DHT22;1649;53.672;10.064;2022-07-17T12:35:46;26.70;74.70
3275;DHT22;1649;53.672;10.064;2022-07-17T12:38:12;26.50;78.70
3275;DHT22;1649;53.672;10.064;2022-07-17T12:40:37;26.90;77.00
3275;DHT22;1649;53.672;10.064;2022-07-17T12:43:03;26.90;75.70
3275;DHT22;1649;53.672;10.064;2022-07-17T12:45:28;27.00;74.00
3275;DHT22;1649;53.672;10.064;2022-07-17T12:47:54;26.80;76.30
3275;DHT22;1649;53.672;10.064;2022-07-17T12:50:19;26.70;75.50
3275;DHT22;1649;53.672;10.064;2022-07-17T12:52:45;26.50;74.60
3275;DHT22;1649;53.672;10.064;2022-07-17T12:55:10;26.40;75.50
3275;DHT22;1649;53.672;10.064;2022-07-17T12:57:36;26.30;76.50
3275;DHT22;1649;53.672;10.064;2022-07-17T13:00:03;26.40;77.90
3275;DHT22;1649;53.672;10.064;2022-07-17T13:02:29;26.40;77.70
3275;DHT22;1649;53.672;10.064;2022-07-17T13:04:54;26.30;76.20
3275;DHT22;1649;53.672;10.064;2022-07-17T13:07:19;26.40;77.20
3275;DHT22;1649;53.672;10.064;2022-07-17T13:09:45;26.20;75.80
3275;DHT22;1649;53.672;10.064;2022-07-17T13:12:10;26.30;76.10
3275;DHT22;1649;53.672;10.064;2022-07-17T13:14:36;26.10;77.50
3275;DHT22;1649;53.672;10.064;2022-07-17T13:17:01;25.90;76.00
3275;DHT22;1649;53.672;10.064;2022-07-17T13:19:27;25.70;77.60
3275;DHT22;1649;53.672;10.064;2022-07-17T13:21:54;25.80;78.70
3275;DHT22;1649;53.672;10.064;2022-07-17T13:24:19;25.70;78.50
3275;DHT22;1649;53.672;10.064;2022-07-17T13:26:46;25.60;79.90
3275;DHT22;1649;53.672;10.064;2022-07-17T13:29:11;25.80;81.50
3275;DHT22;1649;53.672;10.064;2022-07-17T13:31:37;25.90;78.90
3275;DHT22;1649;53.672;10.064;2022-07-17T13:34:03;25.90;79.00
3275;DHT22;1649;53.672;10.064;2022-07-17T13:36:28;25.90;78.10
3275;DHT22;1649;53.672;10.064;2022-07-17T13:38:54;25.90;80.10
3275;DHT22;1649;53.672;10.064;2022-07-17T13:41:19;25.90;78.40
3275;DHT22;1649;53.672;10.064;2022-07-17T13:43:45;25.80;78.10
3275;DHT22;1649;53.672;10.064;2022-07-17T13:46:10;25.60;77.60
3275;DHT22;1649;53.672;10.064;2022-07-17T13:48:36;25.60;78.90
3275;DHT22;1649;53.672;10.064;2022-07-17T13:51:01;25.30;78.10
3275;DHT22;1649;53.672;10.064;2022-07-17T13:53:27;25.20;79.50
3275;DHT22;1649;53.672;10.064;2022-07-17T13:55:54;25.40;79.70
3275;DHT22;1649;53.672;10.064;2022-07-17T13:58:20;25.50;80.40
3275;DHT22;1649;53.672;10.064;2022-07-17T14:00:45;25.40;79.10
3275;DHT22;1649;53.672;10.064;2022-07-17T14:03:11;25.60;80.90
3275;DHT22;1649;53.672;10.064;2022-07-17T14:05:36;25.70;78.80
3275;DHT22;1649;53.672;10.064;2022-07-17T14:08:02;25.60;78.90
3275;DHT22;1649;53.672;10.064;2022-07-17T14:10:28;25.50;78.40
3275;DHT22;1649;53.672;10.064;2022-07-17T14:12:53;25.30;77.40
3275;DHT22;1649;53.672;10.064;2022-07-17T14:15:19;25.10;79.40
3275;DHT22;1649;53.672;10.064;2022-07-17T14:17:44;24.90;80.60
3275;DHT22;1649;53.672;10.064;2022-07-17T14:20:10;24.80;82.00
3275;DHT22;1649;53.672;10.064;2022-07-17T14:22:36;24.90;81.50
3275;DHT22;1649;53.672;10.064;2022-07-17T14:25:02;25.10;79.80
3275;DHT22;1649;53.672;10.064;2022-07-17T14:27:28;25.10;81.00
3275;DHT22;1649;53.672;10.064;2022-07-17T14:29:53;25.30;79.40
3275;DHT22;1649;53.672;10.064;2022-07-17T14:32:18;25.30;78.70
3275;DHT22;1649;53.672;10.064;2022-07-17T14:34:44;25.00;80.90
3275;DHT22;1649;53.672;10.064;2022-07-17T14:37:09;25.00;81.70
3275;DHT22;1649;53.672;10.064;2022-07-17T14:39:35;25.20;80.60
3275;DHT22;1649;53.672;10.064;2022-07-17T14:42:01;25.20;80.30
3275;DHT22;1649;53.672;10.064;2022-07-17T14:44:27;25.00;80.70
3275;DHT22;1649;53.672;10.064;2022-07-17T14:46:53;25.00;80.50
3275;DHT22;1649;53.672;10.064;2022-07-17T14:49:19;25.10;81.80
3275;DHT22;1649;53.672;10.064;2022-07-17T14:51:44;25.10;80.40
3275;DHT22;1649;53.672;10.064;2022-07-17T14:54:10;25.10;81.00
3275;DHT22;1649;53.672;10.064;2022-07-17T14:56:35;25.10;80.70
3275;DHT22;1649;53.672;10.064;2022-07-17T14:59:01;25.00;80.40
3275;DHT22;1649;53.672;10.064;2022-07-17T15:01:27;25.00;79.20
3275;DHT22;1649;53.672;10.064;2022-07-17T15:03:52;24.80;80.00
3275;DHT22;1649;53.672;10.064;2022-07-17T15:06:17;24.90;81.70
3275;DHT22;1649;53.672;10.064;2022-07-17T15:08:43;24.80;81.10
3275;DHT22;1649;53.672;10.064;2022-07-17T15:11:09;24.80;81.60
3275;DHT22;1649;53.672;10.064;2022-07-17T15:13:34;24.60;80.60
3275;DHT22;1649;53.672;10.064;2022-07-17T15:15:59;24.60;82.40
3275;DHT22;1649;53.672;10.064;2022-07-17T15:18:25;24.60;81.70
3275;DHT22;1649;53.672;10.064;2022-07-17T15:20:50;24.50;80.50
3275;DHT22;1649;53.672;10.064;2022-07-17T15:23:17;24.40;81.70
3275;DHT22;1649;53.672;10.064;2022-07-17T15:25:42;24.30;81.40
3275;DHT22;1649;53.672;10.064;2022-07-17T15:28:08;24.50;81.00
3275;DHT22;1649;53.672;10.064;2022-07-17T15:30:33;24.40;81.10
3275;DHT22;1649;53.672;10.064;2022-07-17T15:32:59;24.30;82.10
3275;DHT22;1649;53.672;10.064;2022-07-17T15:35:25;24.30;83.80
3275;DHT22;1649;53.672;10.064;2022-07-17T15:37:52;24.20;82.50
3275;DHT22;1649;53.672;10.064;2022-07-17T15:40:19;24.20;83.10
3275;DHT22;1649;53.672;10.064;2022-07-17T15:42:45;24.30;84.70
3275;DHT22;1649;53.672;10.064;2022-07-17T15:45:11;24.40;84.30
3275;DHT22;1649;53.672;10.064;2022-07-17T15:47:36;24.40;84.20
3275;DHT22;1649;53.672;10.064;2022-07-17T15:50:03;24.30;84.30
3275;DHT22;1649;53.672;10.064;2022-07-17T15:52:28;24.30;83.30
3275;DHT22;1649;53.672;10.064;2022-07-17T15:54:54;24.20;84.50